PWSweather.com
Personal Weather Stations
Station Observations
ILOMBARD30
LodiIT 26900

LodiIT 26900

Lat: 45.2993, Lon: 9.5207

Elevation: 255

Station Type: Davis Vantege Pro2 Plus 24h

http://www.meteo-iw2gob.it

High Low Average
Temperature 64.0°F17.8°C 49.5°F9.7°C 55.5°F13.1°C
Dew Point 51.5°F10.8°C 41.0°F5.0°C 47.0°F8.3°C
Winds 16.1 mph 25.9 kmh Calm Calm 6.0 mph S9.7 kmh S
Wind Gusts 26.5 mph42.6 kmh -- 9.0 mph14.5 kmh
Humidity 84% 63% 73%
Pressure 29.93 in1013.5 mb 29.72 in1006.4 mb -
Precipitation 0.00 in0.0 mm - -
Hour Temp Dew Point Humidity Winds Wind Gusts Pressure Precip Precip Rate Daily Precip Total
12:00 AM 50.4°F10.2°C 43.1°F6.2°C 76% 1.2 mph NE1.9 kmh NE 4.6 mph7.4 kmh 29.93 in1013.5 mb - 0.00 in0.0 mm 0.00 in0.0 mm
12:05 AM 50.4°F10.2°C 43.1°F6.2°C 76% 2.3 mph NE3.7 kmh NE 3.5 mph5.6 kmh 29.93 in1013.5 mb - 0.00 in0.0 mm 0.00 in0.0 mm
12:10 AM 50.4°F10.2°C 43.1°F6.2°C 76% 3.5 mph NE5.6 kmh NE 3.5 mph5.6 kmh 29.93 in1013.5 mb - 0.00 in0.0 mm 0.00 in0.0 mm
12:15 AM 50.4°F10.2°C 43.1°F6.2°C 76% 2.3 mph NE3.7 kmh NE 3.5 mph5.6 kmh 29.92 in1013.2 mb - 0.00 in0.0 mm 0.00 in0.0 mm
12:20 AM 50.4°F10.2°C 43.5°F6.4°C 77% 2.3 mph NE3.7 kmh NE 3.5 mph5.6 kmh 29.92 in1013.2 mb - 0.00 in0.0 mm 0.00 in0.0 mm
12:25 AM 50.4°F10.2°C 43.4°F6.3°C 77% 2.3 mph NE3.7 kmh NE 3.5 mph5.6 kmh 29.92 in1013.2 mb - 0.00 in0.0 mm 0.00 in0.0 mm
12:30 AM 50.3°F10.2°C 43.4°F6.3°C 77% 2.3 mph NNE3.7 kmh NNE 3.5 mph5.6 kmh 29.92 in1013.2 mb - 0.00 in0.0 mm 0.00 in0.0 mm
12:35 AM 50.2°F10.1°C 43.3°F6.3°C 77% 3.5 mph NNE5.6 kmh NNE 3.5 mph5.6 kmh 29.92 in1013.2 mb - 0.00 in0.0 mm 0.00 in0.0 mm
12:40 AM 50.2°F10.1°C 43.3°F6.3°C 77% 2.3 mph NNE3.7 kmh NNE 3.5 mph5.6 kmh 29.92 in1013.2 mb - 0.00 in0.0 mm 0.00 in0.0 mm
12:45 AM 50.2°F10.1°C 43.6°F6.4°C 78% 2.3 mph NE3.7 kmh NE 3.5 mph5.6 kmh 29.91 in1012.9 mb - 0.00 in0.0 mm 0.00 in0.0 mm
12:50 AM 50.3°F10.2°C 43.7°F6.5°C 78% 2.3 mph NE3.7 kmh NE 3.5 mph5.6 kmh 29.91 in1012.9 mb - 0.00 in0.0 mm 0.00 in0.0 mm
12:55 AM 50.3°F10.2°C 43.7°F6.5°C 78% 3.5 mph NE5.6 kmh NE 3.5 mph5.6 kmh 29.91 in1012.9 mb - 0.00 in0.0 mm 0.00 in0.0 mm
01:00 AM 50.3°F10.2°C 43.7°F6.5°C 78% 2.3 mph NE3.7 kmh NE 2.3 mph3.7 kmh 29.91 in1012.9 mb - 0.00 in0.0 mm 0.00 in0.0 mm
01:05 AM 50.4°F10.2°C 43.8°F6.6°C 78% 2.3 mph NE3.7 kmh NE 3.5 mph5.6 kmh 29.91 in1012.9 mb - 0.00 in0.0 mm 0.00 in0.0 mm
01:10 AM 50.4°F10.2°C 43.8°F6.6°C 78% 2.3 mph NE3.7 kmh NE 3.5 mph5.6 kmh 29.91 in1012.9 mb - 0.00 in0.0 mm 0.00 in0.0 mm
01:15 AM 50.4°F10.2°C 43.8°F6.6°C 78% 2.3 mph NE3.7 kmh NE 3.5 mph5.6 kmh 29.90 in1012.5 mb - 0.00 in0.0 mm 0.00 in0.0 mm
01:20 AM 50.4°F10.2°C 43.5°F6.4°C 77% 2.3 mph NNE3.7 kmh NNE 3.5 mph5.6 kmh 29.90 in1012.5 mb - 0.00 in0.0 mm 0.00 in0.0 mm
01:25 AM 50.4°F10.2°C 43.5°F6.4°C 77% 1.2 mph NE1.9 kmh NE 3.5 mph5.6 kmh 29.90 in1012.5 mb - 0.00 in0.0 mm 0.00 in0.0 mm
01:30 AM 50.4°F10.2°C 43.5°F6.4°C 77% 2.3 mph NE3.7 kmh NE 3.5 mph5.6 kmh 29.90 in1012.5 mb - 0.00 in0.0 mm 0.00 in0.0 mm
01:35 AM 50.4°F10.2°C 43.5°F6.4°C 77% 1.2 mph E1.9 kmh E 2.3 mph3.7 kmh 29.91 in1012.9 mb - 0.00 in0.0 mm 0.00 in0.0 mm
01:40 AM 50.5°F10.3°C 43.5°F6.4°C 77% 1.2 mph E1.9 kmh E 2.3 mph3.7 kmh 29.90 in1012.5 mb - 0.00 in0.0 mm 0.00 in0.0 mm
01:45 AM 50.5°F10.3°C 43.5°F6.4°C 77% 1.2 mph E1.9 kmh E 3.5 mph5.6 kmh 29.90 in1012.5 mb - 0.00 in0.0 mm 0.00 in0.0 mm
01:50 AM 50.5°F10.3°C 43.6°F6.4°C 77% 2.3 mph E3.7 kmh E 4.6 mph7.4 kmh 29.90 in1012.5 mb - 0.00 in0.0 mm 0.00 in0.0 mm
01:55 AM 50.5°F10.3°C 43.6°F6.4°C 77% 1.2 mph E1.9 kmh E 4.6 mph7.4 kmh 29.90 in1012.5 mb - 0.00 in0.0 mm 0.00 in0.0 mm
02:00 AM 50.6°F10.3°C 43.7°F6.5°C 77% 1.2 mph E1.9 kmh E 2.3 mph3.7 kmh 29.90 in1012.5 mb - 0.00 in0.0 mm 0.00 in0.0 mm
02:05 AM 50.6°F10.3°C 43.7°F6.5°C 77% 3.5 mph E5.6 kmh E 4.6 mph7.4 kmh 29.90 in1012.5 mb - 0.00 in0.0 mm 0.00 in0.0 mm
02:10 AM 50.8°F10.4°C 43.5°F6.4°C 76% 3.5 mph ESE5.6 kmh ESE 5.8 mph9.3 kmh 29.89 in1012.2 mb - 0.00 in0.0 mm 0.00 in0.0 mm
02:15 AM 51.0°F10.6°C 43.4°F6.3°C 75% 3.5 mph ESE5.6 kmh ESE 6.9 mph11.1 kmh 29.89 in1012.2 mb - 0.00 in0.0 mm 0.00 in0.0 mm
02:20 AM 51.2°F10.7°C 43.2°F6.2°C 74% 4.6 mph E7.4 kmh E 9.2 mph14.8 kmh 29.88 in1011.9 mb - 0.00 in0.0 mm 0.00 in0.0 mm
02:25 AM 51.4°F10.8°C 43.4°F6.3°C 74% 8.1 mph E13.0 kmh E 9.2 mph14.8 kmh 29.87 in1011.5 mb - 0.00 in0.0 mm 0.00 in0.0 mm
02:30 AM 51.6°F10.9°C 43.6°F6.4°C 74% 6.9 mph E11.1 kmh E 11.5 mph18.5 kmh 29.87 in1011.5 mb - 0.00 in0.0 mm 0.00 in0.0 mm
02:35 AM 51.7°F10.9°C 43.7°F6.5°C 74% 5.8 mph E9.3 kmh E 9.2 mph14.8 kmh 29.87 in1011.5 mb - 0.00 in0.0 mm 0.00 in0.0 mm
02:40 AM 51.6°F10.9°C 43.6°F6.4°C 74% 6.9 mph E11.1 kmh E 10.4 mph16.7 kmh 29.86 in1011.2 mb - 0.00 in0.0 mm 0.00 in0.0 mm
02:45 AM 51.6°F10.9°C 43.6°F6.4°C 74% 6.9 mph ESE11.1 kmh ESE 11.5 mph18.5 kmh 29.86 in1011.2 mb - 0.00 in0.0 mm 0.00 in0.0 mm
02:50 AM 51.7°F10.9°C 43.3°F6.3°C 73% 6.9 mph E11.1 kmh E 10.4 mph16.7 kmh 29.86 in1011.2 mb - 0.00 in0.0 mm 0.00 in0.0 mm
02:55 AM 51.7°F10.9°C 43.3°F6.3°C 73% 6.9 mph E11.1 kmh E 11.5 mph18.5 kmh 29.86 in1011.2 mb - 0.00 in0.0 mm 0.00 in0.0 mm
03:00 AM 51.7°F10.9°C 43.0°F6.1°C 72% 6.9 mph E11.1 kmh E 9.2 mph14.8 kmh 29.85 in1010.8 mb - 0.00 in0.0 mm 0.00 in0.0 mm
03:05 AM 51.7°F10.9°C 43.0°F6.1°C 72% 6.9 mph E11.1 kmh E 10.4 mph16.7 kmh 29.84 in1010.5 mb - 0.00 in0.0 mm 0.00 in0.0 mm
03:10 AM 51.7°F10.9°C 43.0°F6.1°C 72% 5.8 mph E9.3 kmh E 11.5 mph18.5 kmh 29.83 in1010.2 mb - 0.00 in0.0 mm 0.00 in0.0 mm
03:15 AM 51.6°F10.9°C 42.9°F6.1°C 72% 6.9 mph E11.1 kmh E 10.4 mph16.7 kmh 29.82 in1009.8 mb - 0.00 in0.0 mm 0.00 in0.0 mm
03:20 AM 51.5°F10.8°C 42.8°F6.0°C 72% 6.9 mph E11.1 kmh E 12.7 mph20.4 kmh 29.82 in1009.8 mb - 0.00 in0.0 mm 0.00 in0.0 mm
03:25 AM 51.4°F10.8°C 42.3°F5.7°C 71% 5.8 mph E9.3 kmh E 11.5 mph18.5 kmh 29.82 in1009.8 mb - 0.00 in0.0 mm 0.00 in0.0 mm
03:30 AM 51.5°F10.8°C 42.4°F5.8°C 71% 6.9 mph ESE11.1 kmh ESE 12.7 mph20.4 kmh 29.82 in1009.8 mb - 0.00 in0.0 mm 0.00 in0.0 mm
03:35 AM 51.5°F10.8°C 42.0°F5.6°C 70% 9.2 mph E14.8 kmh E 13.8 mph22.2 kmh 29.81 in1009.5 mb - 0.00 in0.0 mm 0.00 in0.0 mm
03:40 AM 51.6°F10.9°C 41.7°F5.4°C 69% 6.9 mph E11.1 kmh E 12.7 mph20.4 kmh 29.81 in1009.5 mb - 0.00 in0.0 mm 0.00 in0.0 mm
03:45 AM 51.6°F10.9°C 41.4°F5.2°C 68% 5.8 mph ESE9.3 kmh ESE 12.7 mph20.4 kmh 29.81 in1009.5 mb - 0.00 in0.0 mm 0.00 in0.0 mm
03:50 AM 51.7°F10.9°C 41.1°F5.1°C 67% 8.1 mph ESE13.0 kmh ESE 12.7 mph20.4 kmh 29.81 in1009.5 mb - 0.00 in0.0 mm 0.00 in0.0 mm
03:55 AM 51.9°F11.1°C 41.3°F5.2°C 67% 10.4 mph ESE16.7 kmh ESE 12.7 mph20.4 kmh 29.80 in1009.1 mb - 0.00 in0.0 mm 0.00 in0.0 mm
04:00 AM 52.0°F11.1°C 41.0°F5.0°C 66% 9.2 mph ESE14.8 kmh ESE 12.7 mph20.4 kmh 29.80 in1009.1 mb - 0.00 in0.0 mm 0.00 in0.0 mm
04:05 AM 52.1°F11.2°C 41.1°F5.1°C 66% 10.4 mph ESE16.7 kmh ESE 16.1 mph25.9 kmh 29.79 in1008.8 mb - 0.00 in0.0 mm 0.00 in0.0 mm
04:10 AM 52.0°F11.1°C 41.4°F5.2°C 67% 10.4 mph ESE16.7 kmh ESE 15.0 mph24.1 kmh 29.79 in1008.8 mb - 0.00 in0.0 mm 0.00 in0.0 mm
04:15 AM 52.0°F11.1°C 41.4°F5.2°C 67% 9.2 mph ESE14.8 kmh ESE 15.0 mph24.1 kmh 29.79 in1008.8 mb - 0.00 in0.0 mm 0.00 in0.0 mm
04:20 AM 52.0°F11.1°C 41.8°F5.4°C 68% 10.4 mph ESE16.7 kmh ESE 15.0 mph24.1 kmh 29.79 in1008.8 mb - 0.00 in0.0 mm 0.00 in0.0 mm
04:25 AM 52.0°F11.1°C 41.8°F5.4°C 68% 10.4 mph E16.7 kmh E 12.7 mph20.4 kmh 29.79 in1008.8 mb - 0.00 in0.0 mm 0.00 in0.0 mm
04:30 AM 52.1°F11.2°C 42.2°F5.7°C 69% 10.4 mph E16.7 kmh E 12.7 mph20.4 kmh 29.79 in1008.8 mb - 0.00 in0.0 mm 0.00 in0.0 mm
04:35 AM 52.1°F11.2°C 42.6°F5.9°C 70% 5.8 mph ESE9.3 kmh ESE 10.4 mph16.7 kmh 29.79 in1008.8 mb - 0.00 in0.0 mm 0.00 in0.0 mm
04:40 AM 52.0°F11.1°C 42.9°F6.1°C 71% 8.1 mph SE13.0 kmh SE 13.8 mph22.2 kmh 29.79 in1008.8 mb - 0.00 in0.0 mm 0.00 in0.0 mm
04:45 AM 51.9°F11.1°C 43.1°F6.2°C 72% 5.8 mph ESE9.3 kmh ESE 8.1 mph13.0 kmh 29.79 in1008.8 mb - 0.00 in0.0 mm 0.00 in0.0 mm
04:50 AM 51.7°F10.9°C 43.3°F6.3°C 73% 9.2 mph ESE14.8 kmh ESE 11.5 mph18.5 kmh 29.78 in1008.5 mb - 0.00 in0.0 mm 0.00 in0.0 mm
04:55 AM 51.6°F10.9°C 43.2°F6.2°C 73% 9.2 mph ESE14.8 kmh ESE 15.0 mph24.1 kmh 29.78 in1008.5 mb - 0.00 in0.0 mm 0.00 in0.0 mm
05:00 AM 51.5°F10.8°C 43.5°F6.4°C 74% 11.5 mph ESE18.5 kmh ESE 16.1 mph25.9 kmh 29.77 in1008.1 mb - 0.00 in0.0 mm 0.00 in0.0 mm
05:05 AM 51.4°F10.8°C 43.4°F6.3°C 74% 10.4 mph ESE16.7 kmh ESE 24.2 mph38.9 kmh 29.77 in1008.1 mb - 0.00 in0.0 mm 0.00 in0.0 mm
05:10 AM 51.3°F10.7°C 43.6°F6.4°C 75% 8.1 mph ESE13.0 kmh ESE 15.0 mph24.1 kmh 29.76 in1007.8 mb - 0.00 in0.0 mm 0.00 in0.0 mm
05:15 AM 51.2°F10.7°C 43.9°F6.6°C 76% 12.7 mph ESE20.4 kmh ESE 17.3 mph27.8 kmh 29.77 in1008.1 mb - 0.00 in0.0 mm 0.00 in0.0 mm
05:20 AM 51.0°F10.6°C 43.7°F6.5°C 76% 10.4 mph SE16.7 kmh SE 16.1 mph25.9 kmh 29.77 in1008.1 mb - 0.00 in0.0 mm 0.00 in0.0 mm
05:25 AM 50.9°F10.5°C 43.9°F6.6°C 77% 10.4 mph SE16.7 kmh SE 19.6 mph31.5 kmh 29.77 in1008.1 mb - 0.00 in0.0 mm 0.00 in0.0 mm
05:30 AM 50.9°F10.5°C 44.3°F6.8°C 78% 9.2 mph SE14.8 kmh SE 13.8 mph22.2 kmh 29.76 in1007.8 mb - 0.00 in0.0 mm 0.00 in0.0 mm
05:35 AM 50.8°F10.4°C 44.5°F6.9°C 79% 10.4 mph ESE16.7 kmh ESE 17.3 mph27.8 kmh 29.76 in1007.8 mb - 0.00 in0.0 mm 0.00 in0.0 mm
05:40 AM 50.7°F10.4°C 44.4°F6.9°C 79% 12.7 mph SE20.4 kmh SE 13.8 mph22.2 kmh 29.75 in1007.5 mb - 0.00 in0.0 mm 0.00 in0.0 mm
05:45 AM 50.7°F10.4°C 44.4°F6.9°C 79% 11.5 mph ESE18.5 kmh ESE 25.3 mph40.7 kmh 29.75 in1007.5 mb - 0.00 in0.0 mm 0.00 in0.0 mm
05:50 AM 50.6°F10.3°C 44.3°F6.8°C 79% 11.5 mph ESE18.5 kmh ESE 18.4 mph29.6 kmh 29.75 in1007.5 mb - 0.00 in0.0 mm 0.00 in0.0 mm
05:55 AM 50.5°F10.3°C 44.2°F6.8°C 79% 13.8 mph SE22.2 kmh SE 18.4 mph29.6 kmh 29.75 in1007.5 mb - 0.00 in0.0 mm 0.00 in0.0 mm
06:00 AM 50.4°F10.2°C 44.1°F6.7°C 79% 13.8 mph SE22.2 kmh SE 18.4 mph29.6 kmh 29.75 in1007.5 mb - 0.00 in0.0 mm 0.00 in0.0 mm
06:05 AM 50.2°F10.1°C 43.9°F6.6°C 79% 11.5 mph ESE18.5 kmh ESE 18.4 mph29.6 kmh 29.75 in1007.5 mb - 0.00 in0.0 mm 0.00 in0.0 mm
06:10 AM 50.1°F10.1°C 44.2°F6.8°C 80% 11.5 mph ESE18.5 kmh ESE 18.4 mph29.6 kmh 29.75 in1007.5 mb - 0.00 in0.0 mm 0.00 in0.0 mm
06:15 AM 50.0°F10.0°C 44.1°F6.7°C 80% 13.8 mph ESE22.2 kmh ESE 26.5 mph42.6 kmh 29.75 in1007.5 mb - 0.00 in0.0 mm 0.00 in0.0 mm
06:20 AM 50.0°F10.0°C 44.4°F6.9°C 81% 10.4 mph ESE16.7 kmh ESE 19.6 mph31.5 kmh 29.75 in1007.5 mb - 0.00 in0.0 mm 0.00 in0.0 mm
06:25 AM 50.0°F10.0°C 44.4°F6.9°C 81% 12.7 mph ESE20.4 kmh ESE 21.9 mph35.2 kmh 29.75 in1007.5 mb - 0.00 in0.0 mm 0.00 in0.0 mm
06:30 AM 49.9°F9.9°C 44.3°F6.8°C 81% 10.4 mph SE16.7 kmh SE 17.3 mph27.8 kmh 29.75 in1007.5 mb - 0.00 in0.0 mm 0.00 in0.0 mm
06:35 AM 49.9°F9.9°C 44.6°F7.0°C 82% 12.7 mph SE20.4 kmh SE 19.6 mph31.5 kmh 29.75 in1007.5 mb - 0.00 in0.0 mm 0.00 in0.0 mm
06:40 AM 49.8°F9.9°C 44.5°F6.9°C 82% 11.5 mph ESE18.5 kmh ESE 20.7 mph33.3 kmh 29.75 in1007.5 mb - 0.00 in0.0 mm 0.00 in0.0 mm
06:45 AM 49.7°F9.8°C 44.4°F6.9°C 82% 12.7 mph E20.4 kmh E 18.4 mph29.6 kmh 29.73 in1006.8 mb - 0.00 in0.0 mm 0.00 in0.0 mm
06:50 AM 49.6°F9.8°C 44.3°F6.8°C 82% 8.1 mph ESE13.0 kmh ESE 21.9 mph35.2 kmh 29.74 in1007.1 mb - 0.00 in0.0 mm 0.00 in0.0 mm
06:55 AM 49.6°F9.8°C 44.6°F7.0°C 83% 9.2 mph ESE14.8 kmh ESE 15.0 mph24.1 kmh 29.73 in1006.8 mb - 0.00 in0.0 mm 0.00 in0.0 mm
07:00 AM 49.6°F9.8°C 44.3°F6.8°C 82% 10.4 mph ESE16.7 kmh ESE 21.9 mph35.2 kmh 29.73 in1006.8 mb - 0.00 in0.0 mm 0.00 in0.0 mm
07:05 AM 49.6°F9.8°C 44.3°F6.8°C 82% 12.7 mph ESE20.4 kmh ESE 23.0 mph37.0 kmh 29.73 in1006.8 mb - 0.00 in0.0 mm 0.00 in0.0 mm
07:10 AM 49.6°F9.8°C 44.6°F7.0°C 83% 11.5 mph ESE18.5 kmh ESE 18.4 mph29.6 kmh 29.73 in1006.8 mb - 0.00 in0.0 mm 0.00 in0.0 mm
07:15 AM 49.6°F9.8°C 44.6°F7.0°C 83% 10.4 mph ESE16.7 kmh ESE 16.1 mph25.9 kmh 29.73 in1006.8 mb - 0.00 in0.0 mm 0.00 in0.0 mm
07:20 AM 49.5°F9.7°C 44.6°F7.0°C 83% 13.8 mph E22.2 kmh E 18.4 mph29.6 kmh 29.73 in1006.8 mb - 0.00 in0.0 mm 0.00 in0.0 mm
07:25 AM 49.5°F9.7°C 44.6°F7.0°C 83% 6.9 mph E11.1 kmh E 18.4 mph29.6 kmh 29.73 in1006.8 mb - 0.00 in0.0 mm 0.00 in0.0 mm
07:30 AM 49.5°F9.7°C 44.6°F7.0°C 83% 8.1 mph ESE13.0 kmh ESE 17.3 mph27.8 kmh 29.73 in1006.8 mb - 0.00 in0.0 mm 0.00 in0.0 mm
07:35 AM 49.6°F9.8°C 44.6°F7.0°C 83% 11.5 mph E18.5 kmh E 12.7 mph20.4 kmh 29.73 in1006.8 mb - 0.00 in0.0 mm 0.00 in0.0 mm
07:40 AM 49.6°F9.8°C 44.6°F7.0°C 83% 12.7 mph E20.4 kmh E 16.1 mph25.9 kmh 29.73 in1006.8 mb - 0.00 in0.0 mm 0.00 in0.0 mm
07:45 AM 49.7°F9.8°C 44.7°F7.1°C 83% 11.5 mph E18.5 kmh E 19.6 mph31.5 kmh 29.73 in1006.8 mb - 0.00 in0.0 mm 0.00 in0.0 mm
07:50 AM 49.8°F9.9°C 44.8°F7.1°C 83% 13.8 mph E22.2 kmh E 20.7 mph33.3 kmh 29.73 in1006.8 mb - 0.00 in0.0 mm 0.00 in0.0 mm
07:55 AM 49.9°F9.9°C 44.9°F7.2°C 83% 11.5 mph ESE18.5 kmh ESE 19.6 mph31.5 kmh 29.73 in1006.8 mb - 0.00 in0.0 mm 0.00 in0.0 mm
08:00 AM 50.0°F10.0°C 45.4°F7.4°C 84% 10.4 mph ESE16.7 kmh ESE 19.6 mph31.5 kmh 29.73 in1006.8 mb - 0.00 in0.0 mm 0.00 in0.0 mm
08:05 AM 50.1°F10.1°C 45.1°F7.3°C 83% 10.4 mph ESE16.7 kmh ESE 17.3 mph27.8 kmh 29.73 in1006.8 mb - 0.00 in0.0 mm 0.00 in0.0 mm
08:10 AM 50.2°F10.1°C 45.2°F7.3°C 83% 10.4 mph ESE16.7 kmh ESE 16.1 mph25.9 kmh 29.73 in1006.8 mb - 0.00 in0.0 mm 0.00 in0.0 mm
08:15 AM 50.3°F10.2°C 45.3°F7.4°C 83% 11.5 mph ESE18.5 kmh ESE 13.8 mph22.2 kmh 29.73 in1006.8 mb - 0.00 in0.0 mm 0.00 in0.0 mm
08:20 AM 50.5°F10.3°C 45.2°F7.3°C 82% 10.4 mph E16.7 kmh E 15.0 mph24.1 kmh 29.73 in1006.8 mb - 0.00 in0.0 mm 0.00 in0.0 mm
08:25 AM 50.6°F10.3°C 45.3°F7.4°C 82% 13.8 mph ESE22.2 kmh ESE 18.4 mph29.6 kmh 29.73 in1006.8 mb - 0.00 in0.0 mm 0.00 in0.0 mm
08:30 AM 50.8°F10.4°C 45.5°F7.5°C 82% 6.9 mph E11.1 kmh E 19.6 mph31.5 kmh 29.72 in1006.4 mb - 0.00 in0.0 mm 0.00 in0.0 mm
08:35 AM 51.0°F10.6°C 45.7°F7.6°C 82% 8.1 mph E13.0 kmh E 20.7 mph33.3 kmh 29.72 in1006.4 mb - 0.00 in0.0 mm 0.00 in0.0 mm
08:40 AM 51.2°F10.7°C 45.6°F7.6°C 81% 11.5 mph E18.5 kmh E 18.4 mph29.6 kmh 29.73 in1006.8 mb - 0.00 in0.0 mm 0.00 in0.0 mm
08:45 AM 51.3°F10.7°C 45.7°F7.6°C 81% 15.0 mph E24.1 kmh E 19.6 mph31.5 kmh 29.72 in1006.4 mb - 0.00 in0.0 mm 0.00 in0.0 mm
08:50 AM 51.4°F10.8°C 45.8°F7.7°C 81% 9.2 mph ESE14.8 kmh ESE 11.5 mph18.5 kmh 29.72 in1006.4 mb - 0.00 in0.0 mm 0.00 in0.0 mm
08:55 AM 51.6°F10.9°C 46.0°F7.8°C 81% 13.8 mph E22.2 kmh E 20.7 mph33.3 kmh 29.72 in1006.4 mb - 0.00 in0.0 mm 0.00 in0.0 mm
09:00 AM 51.8°F11.0°C 46.2°F7.9°C 81% 13.8 mph E22.2 kmh E 18.4 mph29.6 kmh 29.72 in1006.4 mb - 0.00 in0.0 mm 0.00 in0.0 mm
09:05 AM 52.1°F11.2°C 46.4°F8.0°C 81% 8.1 mph ESE13.0 kmh ESE 13.8 mph22.2 kmh 29.72 in1006.4 mb - 0.00 in0.0 mm 0.00 in0.0 mm
09:10 AM 52.3°F11.3°C 46.6°F8.1°C 81% 10.4 mph SE16.7 kmh SE 21.9 mph35.2 kmh 29.73 in1006.8 mb - 0.00 in0.0 mm 0.00 in0.0 mm
09:15 AM 52.7°F11.5°C 46.7°F8.2°C 80% 10.4 mph ESE16.7 kmh ESE 11.5 mph18.5 kmh 29.73 in1006.8 mb - 0.00 in0.0 mm 0.00 in0.0 mm
09:20 AM 53.0°F11.7°C 47.0°F8.3°C 80% 6.9 mph ESE11.1 kmh ESE 13.8 mph22.2 kmh 29.73 in1006.8 mb - 0.00 in0.0 mm 0.00 in0.0 mm
09:25 AM 53.2°F11.8°C 46.8°F8.2°C 79% 9.2 mph ESE14.8 kmh ESE 12.7 mph20.4 kmh 29.73 in1006.8 mb - 0.00 in0.0 mm 0.00 in0.0 mm
09:30 AM 53.5°F11.9°C 47.1°F8.4°C 79% 12.7 mph ESE20.4 kmh ESE 23.0 mph37.0 kmh 29.73 in1006.8 mb - 0.00 in0.0 mm 0.00 in0.0 mm
09:35 AM 53.7°F12.1°C 47.4°F8.6°C 79% 16.1 mph SE25.9 kmh SE 19.6 mph31.5 kmh 29.73 in1006.8 mb - 0.00 in0.0 mm 0.00 in0.0 mm
09:40 AM 54.0°F12.2°C 47.3°F8.5°C 78% 11.5 mph ESE18.5 kmh ESE 15.0 mph24.1 kmh 29.73 in1006.8 mb - 0.00 in0.0 mm 0.00 in0.0 mm
09:45 AM 54.6°F12.6°C 47.5°F8.6°C 77% 15.0 mph ESE24.1 kmh ESE 20.7 mph33.3 kmh 29.73 in1006.8 mb - 0.00 in0.0 mm 0.00 in0.0 mm
09:50 AM 54.6°F12.6°C 47.5°F8.6°C 77% 16.1 mph ESE25.9 kmh ESE 25.3 mph40.7 kmh 29.73 in1006.8 mb - 0.00 in0.0 mm 0.00 in0.0 mm
09:55 AM 54.4°F12.4°C 47.3°F8.5°C 77% 16.1 mph E25.9 kmh E 20.7 mph33.3 kmh 29.73 in1006.8 mb - 0.00 in0.0 mm 0.00 in0.0 mm
10:00 AM 54.7°F12.6°C 47.6°F8.7°C 77% 12.7 mph SE20.4 kmh SE 16.1 mph25.9 kmh 29.73 in1006.8 mb - 0.00 in0.0 mm 0.00 in0.0 mm
10:05 AM 54.8°F12.7°C 47.7°F8.7°C 77% 8.1 mph SE13.0 kmh SE 17.3 mph27.8 kmh 29.73 in1006.8 mb - 0.00 in0.0 mm 0.00 in0.0 mm
10:10 AM 54.7°F12.6°C 47.6°F8.7°C 77% 11.5 mph ESE18.5 kmh ESE 17.3 mph27.8 kmh 29.73 in1006.8 mb - 0.00 in0.0 mm 0.00 in0.0 mm
10:15 AM 54.8°F12.7°C 47.7°F8.7°C 77% 9.2 mph ESE14.8 kmh ESE 16.1 mph25.9 kmh 29.73 in1006.8 mb - 0.00 in0.0 mm 0.00 in0.0 mm
10:20 AM 55.0°F12.8°C 48.3°F9.1°C 78% 6.9 mph SE11.1 kmh SE 11.5 mph18.5 kmh 29.73 in1006.8 mb - 0.00 in0.0 mm 0.00 in0.0 mm
10:25 AM 55.7°F13.2°C 48.6°F9.2°C 77% 9.2 mph ESE14.8 kmh ESE 12.7 mph20.4 kmh 29.73 in1006.8 mb - 0.00 in0.0 mm 0.00 in0.0 mm
10:30 AM 56.1°F13.4°C 48.3°F9.1°C 75% 9.2 mph ESE14.8 kmh ESE 10.4 mph16.7 kmh 29.73 in1006.8 mb - 0.00 in0.0 mm 0.00 in0.0 mm
10:35 AM 56.2°F13.4°C 48.4°F9.1°C 75% 9.2 mph SE14.8 kmh SE 17.3 mph27.8 kmh 29.74 in1007.1 mb - 0.00 in0.0 mm 0.00 in0.0 mm
10:40 AM 55.8°F13.2°C 47.6°F8.7°C 74% 11.5 mph ESE18.5 kmh ESE 12.7 mph20.4 kmh 29.74 in1007.1 mb - 0.00 in0.0 mm 0.00 in0.0 mm
10:45 AM 55.5°F13.1°C 47.7°F8.7°C 75% 12.7 mph ESE20.4 kmh ESE 17.3 mph27.8 kmh 29.74 in1007.1 mb - 0.00 in0.0 mm 0.00 in0.0 mm
10:50 AM 55.4°F13.0°C 48.0°F8.9°C 76% 5.8 mph ESE9.3 kmh ESE 10.4 mph16.7 kmh 29.74 in1007.1 mb - 0.00 in0.0 mm 0.00 in0.0 mm
10:55 AM 55.6°F13.1°C 48.2°F9.0°C 76% 6.9 mph SE11.1 kmh SE 11.5 mph18.5 kmh 29.74 in1007.1 mb - 0.00 in0.0 mm 0.00 in0.0 mm
11:00 AM 55.8°F13.2°C 48.0°F8.9°C 75% 9.2 mph E14.8 kmh E 12.7 mph20.4 kmh 29.74 in1007.1 mb - 0.00 in0.0 mm 0.00 in0.0 mm
11:05 AM 55.9°F13.3°C 48.0°F8.9°C 75% 3.5 mph ESE5.6 kmh ESE 4.6 mph7.4 kmh 29.74 in1007.1 mb - 0.00 in0.0 mm 0.00 in0.0 mm
11:10 AM 55.9°F13.3°C 48.1°F8.9°C 75% 8.1 mph ESE13.0 kmh ESE 9.2 mph14.8 kmh 29.74 in1007.1 mb - 0.00 in0.0 mm 0.00 in0.0 mm
11:15 AM 55.7°F13.2°C 47.9°F8.8°C 75% 5.8 mph SE9.3 kmh SE 8.1 mph13.0 kmh 29.74 in1007.1 mb - 0.00 in0.0 mm 0.00 in0.0 mm
11:20 AM 55.7°F13.2°C 48.2°F9.0°C 76% 4.6 mph ESE7.4 kmh ESE 8.1 mph13.0 kmh 29.75 in1007.5 mb - 0.00 in0.0 mm 0.00 in0.0 mm
11:25 AM 55.6°F13.1°C 48.5°F9.2°C 77% 3.5 mph SE5.6 kmh SE 3.5 mph5.6 kmh 29.74 in1007.1 mb - 0.00 in0.0 mm 0.00 in0.0 mm
11:30 AM 55.7°F13.2°C 48.6°F9.2°C 77% 5.8 mph SE9.3 kmh SE 8.1 mph13.0 kmh 29.75 in1007.5 mb - 0.00 in0.0 mm 0.00 in0.0 mm
11:35 AM 55.8°F13.2°C 48.3°F9.1°C 76% 5.8 mph ESE9.3 kmh ESE 11.5 mph18.5 kmh 29.75 in1007.5 mb - 0.00 in0.0 mm 0.00 in0.0 mm
11:40 AM 55.8°F13.2°C 48.3°F9.1°C 76% 6.9 mph SE11.1 kmh SE 11.5 mph18.5 kmh 29.74 in1007.1 mb - 0.00 in0.0 mm 0.00 in0.0 mm
11:45 AM 55.9°F13.3°C 48.4°F9.1°C 76% 5.8 mph E9.3 kmh E 9.2 mph14.8 kmh 29.74 in1007.1 mb - 0.00 in0.0 mm 0.00 in0.0 mm
11:50 AM 56.2°F13.4°C 48.7°F9.3°C 76% 5.8 mph ESE9.3 kmh ESE 6.9 mph11.1 kmh 29.75 in1007.5 mb - 0.00 in0.0 mm 0.00 in0.0 mm
11:55 AM 56.8°F13.8°C 49.3°F9.6°C 76% 5.8 mph SE9.3 kmh SE 10.4 mph16.7 kmh 29.75 in1007.5 mb - 0.00 in0.0 mm 0.00 in0.0 mm
12:00 PM 57.3°F14.1°C 49.4°F9.7°C 75% 2.3 mph ESE3.7 kmh ESE 10.4 mph16.7 kmh 29.75 in1007.5 mb - 0.00 in0.0 mm 0.00 in0.0 mm
12:05 PM 57.7°F14.3°C 49.1°F9.5°C 73% 6.9 mph SE11.1 kmh SE 9.2 mph14.8 kmh 29.75 in1007.5 mb - 0.00 in0.0 mm 0.00 in0.0 mm
12:10 PM 57.8°F14.3°C 49.6°F9.8°C 74% 5.8 mph E9.3 kmh E 8.1 mph13.0 kmh 29.75 in1007.5 mb - 0.00 in0.0 mm 0.00 in0.0 mm
12:15 PM 58.2°F14.6°C 49.5°F9.7°C 73% 8.1 mph ESE13.0 kmh ESE 10.4 mph16.7 kmh 29.75 in1007.5 mb - 0.00 in0.0 mm 0.00 in0.0 mm
12:20 PM 58.5°F14.7°C 49.9°F9.9°C 73% 5.8 mph SE9.3 kmh SE 10.4 mph16.7 kmh 29.75 in1007.5 mb - 0.00 in0.0 mm 0.00 in0.0 mm
12:25 PM 58.8°F14.9°C 49.8°F9.9°C 72% 5.8 mph E9.3 kmh E 8.1 mph13.0 kmh 29.75 in1007.5 mb - 0.00 in0.0 mm 0.00 in0.0 mm
12:30 PM 59.0°F15.0°C 50.0°F10.0°C 72% 4.6 mph SE7.4 kmh SE 4.6 mph7.4 kmh 29.75 in1007.5 mb - 0.00 in0.0 mm 0.00 in0.0 mm
12:35 PM 59.3°F15.2°C 49.9°F9.9°C 71% 4.6 mph ESE7.4 kmh ESE 6.9 mph11.1 kmh 29.75 in1007.5 mb - 0.00 in0.0 mm 0.00 in0.0 mm
12:40 PM 59.5°F15.3°C 50.1°F10.1°C 71% 3.5 mph ESE5.6 kmh ESE 8.1 mph13.0 kmh 29.75 in1007.5 mb - 0.00 in0.0 mm 0.00 in0.0 mm
12:45 PM 59.9°F15.5°C 50.5°F10.3°C 71% 2.3 mph S3.7 kmh S 3.5 mph5.6 kmh 29.75 in1007.5 mb - 0.00 in0.0 mm 0.00 in0.0 mm
12:50 PM 60.2°F15.7°C 50.4°F10.2°C 70% 4.6 mph ESE7.4 kmh ESE 4.6 mph7.4 kmh 29.75 in1007.5 mb - 0.00 in0.0 mm 0.00 in0.0 mm
12:55 PM 60.4°F15.8°C 50.2°F10.1°C 69% 1.2 mph SW1.9 kmh SW 1.2 mph1.9 kmh 29.75 in1007.5 mb - 0.00 in0.0 mm 0.00 in0.0 mm
01:00 PM 61.1°F16.2°C 50.5°F10.3°C 68% 2.3 mph S3.7 kmh S 3.5 mph5.6 kmh 29.74 in1007.1 mb - 0.00 in0.0 mm 0.00 in0.0 mm
01:05 PM 61.6°F16.4°C 50.6°F10.3°C 67% 2.3 mph SSE3.7 kmh SSE 3.5 mph5.6 kmh 29.74 in1007.1 mb - 0.00 in0.0 mm 0.00 in0.0 mm
01:10 PM 61.9°F16.6°C 50.9°F10.5°C 67% Calm Calm 2.3 mph3.7 kmh 29.74 in1007.1 mb - 0.00 in0.0 mm 0.00 in0.0 mm
01:15 PM 62.3°F16.8°C 50.8°F10.4°C 66% 3.5 mph SE5.6 kmh SE 3.5 mph5.6 kmh 29.74 in1007.1 mb - 0.00 in0.0 mm 0.00 in0.0 mm
01:20 PM 62.4°F16.9°C 50.9°F10.5°C 66% 1.2 mph ESE1.9 kmh ESE 2.3 mph3.7 kmh 29.74 in1007.1 mb - 0.00 in0.0 mm 0.00 in0.0 mm
01:25 PM 62.7°F17.1°C 51.2°F10.7°C 66% 5.8 mph SW9.3 kmh SW 6.9 mph11.1 kmh 29.74 in1007.1 mb - 0.00 in0.0 mm 0.00 in0.0 mm
01:30 PM 62.9°F17.2°C 51.0°F10.6°C 65% 5.8 mph SW9.3 kmh SW 6.9 mph11.1 kmh 29.74 in1007.1 mb - 0.00 in0.0 mm 0.00 in0.0 mm
01:35 PM 62.9°F17.2°C 50.9°F10.5°C 65% 3.5 mph WSW5.6 kmh WSW 4.6 mph7.4 kmh 29.74 in1007.1 mb - 0.00 in0.0 mm 0.00 in0.0 mm
01:40 PM 62.9°F17.2°C 51.0°F10.6°C 65% 2.3 mph NNW3.7 kmh NNW 3.5 mph5.6 kmh 29.73 in1006.8 mb - 0.00 in0.0 mm 0.00 in0.0 mm
01:45 PM 63.4°F17.4°C 51.5°F10.8°C 65% 1.2 mph NW1.9 kmh NW 3.5 mph5.6 kmh 29.73 in1006.8 mb - 0.00 in0.0 mm 0.00 in0.0 mm
01:50 PM 64.0°F17.8°C 51.1°F10.6°C 63% 4.6 mph SW7.4 kmh SW 6.9 mph11.1 kmh 29.73 in1006.8 mb - 0.00 in0.0 mm 0.00 in0.0 mm
01:55 PM 63.9°F17.7°C 51.0°F10.6°C 63% 5.8 mph SSW9.3 kmh SSW 9.2 mph14.8 kmh 29.73 in1006.8 mb - 0.00 in0.0 mm 0.00 in0.0 mm
02:00 PM 63.8°F17.7°C 51.3°F10.7°C 64% 6.9 mph WSW11.1 kmh WSW 9.2 mph14.8 kmh 29.73 in1006.8 mb - 0.00 in0.0 mm 0.00 in0.0 mm
02:05 PM 63.5°F17.5°C 50.7°F10.4°C 63% 5.8 mph W9.3 kmh W 10.4 mph16.7 kmh 29.73 in1006.8 mb - 0.00 in0.0 mm 0.00 in0.0 mm
02:10 PM 62.9°F17.2°C 50.6°F10.3°C 64% 3.5 mph W5.6 kmh W 5.8 mph9.3 kmh 29.73 in1006.8 mb - 0.00 in0.0 mm 0.00 in0.0 mm
02:15 PM 62.7°F17.1°C 50.8°F10.4°C 65% 4.6 mph SW7.4 kmh SW 11.5 mph18.5 kmh 29.72 in1006.4 mb - 0.00 in0.0 mm 0.00 in0.0 mm
02:20 PM 62.9°F17.2°C 50.5°F10.3°C 64% 3.5 mph W5.6 kmh W 6.9 mph11.1 kmh 29.72 in1006.4 mb - 0.00 in0.0 mm 0.00 in0.0 mm
02:25 PM 62.9°F17.2°C 50.5°F10.3°C 64% 8.1 mph WSW13.0 kmh WSW 11.5 mph18.5 kmh 29.72 in1006.4 mb - 0.00 in0.0 mm 0.00 in0.0 mm
02:30 PM 62.8°F17.1°C 50.4°F10.2°C 64% 2.3 mph NW3.7 kmh NW 3.5 mph5.6 kmh 29.72 in1006.4 mb - 0.00 in0.0 mm 0.00 in0.0 mm
02:35 PM 63.0°F17.2°C 50.6°F10.3°C 64% 3.5 mph NW5.6 kmh NW 4.6 mph7.4 kmh 29.72 in1006.4 mb - 0.00 in0.0 mm 0.00 in0.0 mm
02:40 PM 62.9°F17.2°C 50.5°F10.3°C 64% 4.6 mph NW7.4 kmh NW 5.8 mph9.3 kmh 29.73 in1006.8 mb - 0.00 in0.0 mm 0.00 in0.0 mm
02:45 PM 62.8°F17.1°C 50.0°F10.0°C 63% 3.5 mph WSW5.6 kmh WSW 6.9 mph11.1 kmh 29.73 in1006.8 mb - 0.00 in0.0 mm 0.00 in0.0 mm
02:50 PM 62.9°F17.2°C 50.1°F10.1°C 63% 6.9 mph NW11.1 kmh NW 6.9 mph11.1 kmh 29.73 in1006.8 mb - 0.00 in0.0 mm 0.00 in0.0 mm
02:55 PM 62.7°F17.1°C 50.0°F10.0°C 63% 4.6 mph W7.4 kmh W 4.6 mph7.4 kmh 29.73 in1006.8 mb - 0.00 in0.0 mm 0.00 in0.0 mm
03:00 PM 62.9°F17.2°C 50.5°F10.3°C 64% 3.5 mph WNW5.6 kmh WNW 6.9 mph11.1 kmh 29.73 in1006.8 mb - 0.00 in0.0 mm 0.00 in0.0 mm
03:05 PM 63.3°F17.4°C 50.9°F10.5°C 64% 3.5 mph NW5.6 kmh NW 4.6 mph7.4 kmh 29.73 in1006.8 mb - 0.00 in0.0 mm 0.00 in0.0 mm
03:10 PM 63.4°F17.4°C 50.6°F10.3°C 63% 5.8 mph WNW9.3 kmh WNW 9.2 mph14.8 kmh 29.73 in1006.8 mb - 0.00 in0.0 mm 0.00 in0.0 mm
03:15 PM 63.1°F17.3°C 50.3°F10.2°C 63% 4.6 mph W7.4 kmh W 5.8 mph9.3 kmh 29.73 in1006.8 mb - 0.00 in0.0 mm 0.00 in0.0 mm
03:20 PM 62.8°F17.1°C 50.4°F10.2°C 64% 4.6 mph NW7.4 kmh NW 4.6 mph7.4 kmh 29.74 in1007.1 mb - 0.00 in0.0 mm 0.00 in0.0 mm
03:25 PM 62.7°F17.1°C 50.4°F10.2°C 64% 3.5 mph N5.6 kmh N 10.4 mph16.7 kmh 29.73 in1006.8 mb - 0.00 in0.0 mm 0.00 in0.0 mm
03:30 PM 62.6°F17.0°C 50.2°F10.1°C 64% 6.9 mph NNW11.1 kmh NNW 8.1 mph13.0 kmh 29.73 in1006.8 mb - 0.00 in0.0 mm 0.00 in0.0 mm
03:35 PM 62.3°F16.8°C 50.4°F10.2°C 65% 5.8 mph N9.3 kmh N 11.5 mph18.5 kmh 29.73 in1006.8 mb - 0.00 in0.0 mm 0.00 in0.0 mm
03:40 PM 62.1°F16.7°C 50.2°F10.1°C 65% 4.6 mph NW7.4 kmh NW 5.8 mph9.3 kmh 29.73 in1006.8 mb - 0.00 in0.0 mm 0.00 in0.0 mm
03:45 PM 62.1°F16.7°C 50.2°F10.1°C 65% 6.9 mph NNW11.1 kmh NNW 8.1 mph13.0 kmh 29.73 in1006.8 mb - 0.00 in0.0 mm 0.00 in0.0 mm
03:50 PM 62.2°F16.8°C 50.3°F10.2°C 65% 8.1 mph NW13.0 kmh NW 11.5 mph18.5 kmh 29.73 in1006.8 mb - 0.00 in0.0 mm 0.00 in0.0 mm
03:55 PM 62.2°F16.8°C 50.3°F10.2°C 65% 6.9 mph WNW11.1 kmh WNW 10.4 mph16.7 kmh 29.73 in1006.8 mb - 0.00 in0.0 mm 0.00 in0.0 mm
04:00 PM 62.1°F16.7°C 50.2°F10.1°C 65% 5.8 mph NW9.3 kmh NW 9.2 mph14.8 kmh 29.73 in1006.8 mb - 0.00 in0.0 mm 0.00 in0.0 mm
04:05 PM 62.1°F16.7°C 50.2°F10.1°C 65% 4.6 mph NW7.4 kmh NW 9.2 mph14.8 kmh 29.73 in1006.8 mb - 0.00 in0.0 mm 0.00 in0.0 mm
04:10 PM 62.1°F16.7°C 49.8°F9.9°C 64% 3.5 mph NW5.6 kmh NW 4.6 mph7.4 kmh 29.73 in1006.8 mb - 0.00 in0.0 mm 0.00 in0.0 mm
04:15 PM 62.2°F16.8°C 49.9°F9.9°C 64% 3.5 mph NW5.6 kmh NW 5.8 mph9.3 kmh 29.73 in1006.8 mb - 0.00 in0.0 mm 0.00 in0.0 mm
04:20 PM 62.4°F16.9°C 50.5°F10.3°C 65% 4.6 mph N7.4 kmh N 6.9 mph11.1 kmh 29.73 in1006.8 mb - 0.00 in0.0 mm 0.00 in0.0 mm
04:25 PM 62.3°F16.8°C 50.4°F10.2°C 65% 4.6 mph NW7.4 kmh NW 4.6 mph7.4 kmh 29.73 in1006.8 mb - 0.00 in0.0 mm 0.00 in0.0 mm
04:30 PM 62.3°F16.8°C 50.4°F10.2°C 65% 8.1 mph NNW13.0 kmh NNW 9.2 mph14.8 kmh 29.73 in1006.8 mb - 0.00 in0.0 mm 0.00 in0.0 mm
04:35 PM 62.1°F16.7°C 50.2°F10.1°C 65% 3.5 mph NW5.6 kmh NW 3.5 mph5.6 kmh 29.74 in1007.1 mb - 0.00 in0.0 mm 0.00 in0.0 mm
04:40 PM 62.0°F16.7°C 50.1°F10.1°C 65% 5.8 mph N9.3 kmh N 6.9 mph11.1 kmh 29.74 in1007.1 mb - 0.00 in0.0 mm 0.00 in0.0 mm
04:45 PM 61.9°F16.6°C 50.0°F10.0°C 65% 3.5 mph NW5.6 kmh NW 4.6 mph7.4 kmh 29.74 in1007.1 mb - 0.00 in0.0 mm 0.00 in0.0 mm
04:50 PM 61.8°F16.6°C 49.9°F9.9°C 65% 3.5 mph N5.6 kmh N 5.8 mph9.3 kmh 29.74 in1007.1 mb - 0.00 in0.0 mm 0.00 in0.0 mm
04:55 PM 61.8°F16.6°C 49.9°F9.9°C 65% 4.6 mph N7.4 kmh N 4.6 mph7.4 kmh 29.74 in1007.1 mb - 0.00 in0.0 mm 0.00 in0.0 mm
05:00 PM 61.8°F16.6°C 49.9°F9.9°C 65% 2.3 mph NNW3.7 kmh NNW 3.5 mph5.6 kmh 29.74 in1007.1 mb - 0.00 in0.0 mm 0.00 in0.0 mm
05:05 PM 61.8°F16.6°C 49.9°F9.9°C 65% 4.6 mph NNW7.4 kmh NNW 5.8 mph9.3 kmh 29.74 in1007.1 mb - 0.00 in0.0 mm 0.00 in0.0 mm
05:10 PM 61.8°F16.6°C 49.9°F9.9°C 65% 3.5 mph N5.6 kmh N 4.6 mph7.4 kmh 29.74 in1007.1 mb - 0.00 in0.0 mm 0.00 in0.0 mm
05:15 PM 61.6°F16.4°C 49.7°F9.8°C 65% 3.5 mph N5.6 kmh N 3.5 mph5.6 kmh 29.74 in1007.1 mb - 0.00 in0.0 mm 0.00 in0.0 mm
05:20 PM 61.5°F16.4°C 49.6°F9.8°C 65% 4.6 mph N7.4 kmh N 5.8 mph9.3 kmh 29.75 in1007.5 mb - 0.00 in0.0 mm 0.00 in0.0 mm
05:25 PM 61.3°F16.3°C 49.9°F9.9°C 66% 2.3 mph NNW3.7 kmh NNW 3.5 mph5.6 kmh 29.75 in1007.5 mb - 0.00 in0.0 mm 0.00 in0.0 mm
05:30 PM 61.2°F16.2°C 49.7°F9.8°C 66% 3.5 mph NNW5.6 kmh NNW 3.5 mph5.6 kmh 29.75 in1007.5 mb - 0.00 in0.0 mm 0.00 in0.0 mm
05:35 PM 61.1°F16.2°C 49.6°F9.8°C 66% 3.5 mph NW5.6 kmh NW 4.6 mph7.4 kmh 29.75 in1007.5 mb - 0.00 in0.0 mm 0.00 in0.0 mm
05:40 PM 60.9°F16.1°C 49.9°F9.9°C 67% 3.5 mph NW5.6 kmh NW 3.5 mph5.6 kmh 29.75 in1007.5 mb - 0.00 in0.0 mm 0.00 in0.0 mm
05:45 PM 60.8°F16.0°C 49.7°F9.8°C 67% 4.6 mph NW7.4 kmh NW 3.5 mph5.6 kmh 29.75 in1007.5 mb - 0.00 in0.0 mm 0.00 in0.0 mm
05:50 PM 60.6°F15.9°C 49.6°F9.8°C 67% 3.5 mph WNW5.6 kmh WNW 4.6 mph7.4 kmh 29.75 in1007.5 mb - 0.00 in0.0 mm 0.00 in0.0 mm
05:55 PM 60.4°F15.8°C 49.4°F9.7°C 67% 2.3 mph WNW3.7 kmh WNW 3.5 mph5.6 kmh 29.76 in1007.8 mb - 0.00 in0.0 mm 0.00 in0.0 mm
06:00 PM 60.3°F15.7°C 49.3°F9.6°C 67% 3.5 mph WNW5.6 kmh WNW 3.5 mph5.6 kmh 29.76 in1007.8 mb - 0.00 in0.0 mm 0.00 in0.0 mm
06:05 PM 60.2°F15.7°C 49.2°F9.6°C 67% 3.5 mph WNW5.6 kmh WNW 3.5 mph5.6 kmh 29.76 in1007.8 mb - 0.00 in0.0 mm 0.00 in0.0 mm
06:10 PM 60.0°F15.6°C 49.0°F9.4°C 67% 1.2 mph NW1.9 kmh NW 3.5 mph5.6 kmh 29.76 in1007.8 mb - 0.00 in0.0 mm 0.00 in0.0 mm
06:15 PM 59.9°F15.5°C 49.0°F9.4°C 67% 2.3 mph NW3.7 kmh NW 3.5 mph5.6 kmh 29.76 in1007.8 mb - 0.00 in0.0 mm 0.00 in0.0 mm
06:20 PM 59.8°F15.4°C 48.8°F9.3°C 67% 2.3 mph NW3.7 kmh NW 3.5 mph5.6 kmh 29.77 in1008.1 mb - 0.00 in0.0 mm 0.00 in0.0 mm
06:25 PM 59.7°F15.4°C 48.7°F9.3°C 67% 2.3 mph NW3.7 kmh NW 3.5 mph5.6 kmh 29.77 in1008.1 mb - 0.00 in0.0 mm 0.00 in0.0 mm
06:30 PM 59.5°F15.3°C 48.9°F9.4°C 68% 2.3 mph NW3.7 kmh NW 3.5 mph5.6 kmh 29.77 in1008.1 mb - 0.00 in0.0 mm 0.00 in0.0 mm
06:35 PM 59.4°F15.2°C 48.8°F9.3°C 68% 2.3 mph NW3.7 kmh NW 3.5 mph5.6 kmh 29.77 in1008.1 mb - 0.00 in0.0 mm 0.00 in0.0 mm
06:40 PM 59.3°F15.2°C 48.7°F9.3°C 68% 2.3 mph NW3.7 kmh NW 3.5 mph5.6 kmh 29.77 in1008.1 mb - 0.00 in0.0 mm 0.00 in0.0 mm
06:45 PM 59.1°F15.1°C 48.5°F9.2°C 68% 2.3 mph NW3.7 kmh NW 3.5 mph5.6 kmh 29.77 in1008.1 mb - 0.00 in0.0 mm 0.00 in0.0 mm
06:50 PM 59.0°F15.0°C 48.8°F9.3°C 69% 2.3 mph NW3.7 kmh NW 3.5 mph5.6 kmh 29.77 in1008.1 mb - 0.00 in0.0 mm 0.00 in0.0 mm
06:55 PM 58.8°F14.9°C 48.6°F9.2°C 69% 2.3 mph NW3.7 kmh NW 3.5 mph5.6 kmh 29.77 in1008.1 mb - 0.00 in0.0 mm 0.00 in0.0 mm
07:00 PM 58.6°F14.8°C 48.4°F9.1°C 69% 2.3 mph NW3.7 kmh NW 3.5 mph5.6 kmh 29.78 in1008.5 mb - 0.00 in0.0 mm 0.00 in0.0 mm
07:05 PM 58.3°F14.6°C 48.6°F9.2°C 70% 2.3 mph NW3.7 kmh NW 3.5 mph5.6 kmh 29.78 in1008.5 mb - 0.00 in0.0 mm 0.00 in0.0 mm
07:10 PM 58.1°F14.5°C 48.7°F9.3°C 71% 2.3 mph NW3.7 kmh NW 3.5 mph5.6 kmh 29.78 in1008.5 mb - 0.00 in0.0 mm 0.00 in0.0 mm
07:15 PM 58.0°F14.4°C 48.6°F9.2°C 71% 2.3 mph NNW3.7 kmh NNW 3.5 mph5.6 kmh 29.78 in1008.5 mb - 0.00 in0.0 mm 0.00 in0.0 mm
07:20 PM 57.8°F14.3°C 48.5°F9.2°C 71% 2.3 mph NNW3.7 kmh NNW 3.5 mph5.6 kmh 29.78 in1008.5 mb - 0.00 in0.0 mm 0.00 in0.0 mm
07:25 PM 57.7°F14.3°C 48.7°F9.3°C 72% 1.2 mph NNW1.9 kmh NNW 3.5 mph5.6 kmh 29.79 in1008.8 mb - 0.00 in0.0 mm 0.00 in0.0 mm
07:30 PM 57.6°F14.2°C 48.6°F9.2°C 72% 1.2 mph NNW1.9 kmh NNW 2.3 mph3.7 kmh 29.79 in1008.8 mb - 0.00 in0.0 mm 0.00 in0.0 mm
07:35 PM 57.5°F14.2°C 48.5°F9.2°C 72% 1.2 mph NNW1.9 kmh NNW 2.3 mph3.7 kmh 29.79 in1008.8 mb - 0.00 in0.0 mm 0.00 in0.0 mm
07:40 PM 57.5°F14.2°C 48.5°F9.2°C 72% 2.3 mph NNW3.7 kmh NNW 2.3 mph3.7 kmh 29.79 in1008.8 mb - 0.00 in0.0 mm 0.00 in0.0 mm
07:45 PM 57.4°F14.1°C 48.8°F9.3°C 73% 1.2 mph NNW1.9 kmh NNW 2.3 mph3.7 kmh 29.79 in1008.8 mb - 0.00 in0.0 mm 0.00 in0.0 mm
07:50 PM 57.3°F14.1°C 48.7°F9.3°C 73% 1.2 mph NNW1.9 kmh NNW 3.5 mph5.6 kmh 29.79 in1008.8 mb - 0.00 in0.0 mm 0.00 in0.0 mm
07:55 PM 57.2°F14.0°C 48.6°F9.2°C 73% 3.5 mph NNW5.6 kmh NNW 3.5 mph5.6 kmh 29.79 in1008.8 mb - 0.00 in0.0 mm 0.00 in0.0 mm
08:00 PM 57.1°F13.9°C 48.5°F9.2°C 73% 3.5 mph NW5.6 kmh NW 4.6 mph7.4 kmh 29.79 in1008.8 mb - 0.00 in0.0 mm 0.00 in0.0 mm
08:05 PM 57.0°F13.9°C 48.4°F9.1°C 73% 3.5 mph NW5.6 kmh NW 3.5 mph5.6 kmh 29.79 in1008.8 mb - 0.00 in0.0 mm 0.00 in0.0 mm
08:10 PM 56.9°F13.8°C 48.7°F9.3°C 74% 2.3 mph NW3.7 kmh NW 3.5 mph5.6 kmh 29.79 in1008.8 mb - 0.00 in0.0 mm 0.00 in0.0 mm
08:15 PM 57.0°F13.9°C 48.7°F9.3°C 74% 3.5 mph NW5.6 kmh NW 3.5 mph5.6 kmh 29.79 in1008.8 mb - 0.00 in0.0 mm 0.00 in0.0 mm
08:20 PM 57.0°F13.9°C 48.8°F9.3°C 74% 3.5 mph NW5.6 kmh NW 4.6 mph7.4 kmh 29.79 in1008.8 mb - 0.00 in0.0 mm 0.00 in0.0 mm
08:25 PM 57.0°F13.9°C 48.8°F9.3°C 74% 4.6 mph NW7.4 kmh NW 5.8 mph9.3 kmh 29.80 in1009.1 mb - 0.00 in0.0 mm 0.00 in0.0 mm
08:30 PM 56.9°F13.8°C 48.7°F9.3°C 74% 3.5 mph WNW5.6 kmh WNW 4.6 mph7.4 kmh 29.80 in1009.1 mb - 0.00 in0.0 mm 0.00 in0.0 mm
08:35 PM 56.8°F13.8°C 48.6°F9.2°C 74% 3.5 mph WNW5.6 kmh WNW 4.6 mph7.4 kmh 29.80 in1009.1 mb - 0.00 in0.0 mm 0.00 in0.0 mm
08:40 PM 56.8°F13.8°C 48.6°F9.2°C 74% 3.5 mph W5.6 kmh W 5.8 mph9.3 kmh 29.80 in1009.1 mb - 0.00 in0.0 mm 0.00 in0.0 mm
08:45 PM 56.8°F13.8°C 48.6°F9.2°C 74% 4.6 mph NW7.4 kmh NW 4.6 mph7.4 kmh 29.80 in1009.1 mb - 0.00 in0.0 mm 0.00 in0.0 mm
08:50 PM 56.8°F13.8°C 48.6°F9.2°C 74% 3.5 mph NW5.6 kmh NW 4.6 mph7.4 kmh 29.80 in1009.1 mb - 0.00 in0.0 mm 0.00 in0.0 mm
08:55 PM 56.8°F13.8°C 48.6°F9.2°C 74% 3.5 mph NW5.6 kmh NW 4.6 mph7.4 kmh 29.80 in1009.1 mb - 0.00 in0.0 mm 0.00 in0.0 mm
09:00 PM 56.8°F13.8°C 48.6°F9.2°C 74% 2.3 mph NW3.7 kmh NW 3.5 mph5.6 kmh 29.80 in1009.1 mb - 0.00 in0.0 mm 0.00 in0.0 mm
09:05 PM 56.8°F13.8°C 48.6°F9.2°C 74% 3.5 mph N5.6 kmh N 3.5 mph5.6 kmh 29.80 in1009.1 mb - 0.00 in0.0 mm 0.00 in0.0 mm
09:10 PM 56.7°F13.7°C 48.5°F9.2°C 74% 3.5 mph N5.6 kmh N 3.5 mph5.6 kmh 29.80 in1009.1 mb - 0.00 in0.0 mm 0.00 in0.0 mm
09:15 PM 56.6°F13.7°C 48.4°F9.1°C 74% 2.3 mph NNW3.7 kmh NNW 3.5 mph5.6 kmh 29.80 in1009.1 mb - 0.00 in0.0 mm 0.00 in0.0 mm
09:20 PM 56.5°F13.6°C 48.3°F9.1°C 74% 2.3 mph NW3.7 kmh NW 3.5 mph5.6 kmh 29.80 in1009.1 mb - 0.00 in0.0 mm 0.00 in0.0 mm
09:25 PM 56.4°F13.6°C 48.2°F9.0°C 74% 2.3 mph NW3.7 kmh NW 3.5 mph5.6 kmh 29.81 in1009.5 mb - 0.00 in0.0 mm 0.00 in0.0 mm
09:30 PM 56.4°F13.6°C 48.2°F9.0°C 74% 2.3 mph NW3.7 kmh NW 3.5 mph5.6 kmh 29.81 in1009.5 mb - 0.00 in0.0 mm 0.00 in0.0 mm
09:35 PM 56.3°F13.5°C 48.5°F9.2°C 75% 1.2 mph NW1.9 kmh NW 2.3 mph3.7 kmh 29.81 in1009.5 mb - 0.00 in0.0 mm 0.00 in0.0 mm
09:40 PM 56.3°F13.5°C 48.1°F8.9°C 74% 2.3 mph NW3.7 kmh NW 3.5 mph5.6 kmh 29.81 in1009.5 mb - 0.00 in0.0 mm 0.00 in0.0 mm
09:45 PM 56.3°F13.5°C 48.1°F8.9°C 74% 1.2 mph NW1.9 kmh NW 2.3 mph3.7 kmh 29.82 in1009.8 mb - 0.00 in0.0 mm 0.00 in0.0 mm
09:50 PM 56.3°F13.5°C 48.1°F8.9°C 74% 1.2 mph NW1.9 kmh NW 2.3 mph3.7 kmh 29.82 in1009.8 mb - 0.00 in0.0 mm 0.00 in0.0 mm
09:55 PM 56.3°F13.5°C 48.1°F8.9°C 74% 2.3 mph NW3.7 kmh NW 3.5 mph5.6 kmh 29.82 in1009.8 mb - 0.00 in0.0 mm 0.00 in0.0 mm
10:00 PM 56.3°F13.5°C 48.1°F8.9°C 74% 1.2 mph NW1.9 kmh NW 2.3 mph3.7 kmh 29.82 in1009.8 mb - 0.00 in0.0 mm 0.00 in0.0 mm
10:05 PM 56.3°F13.5°C 48.1°F8.9°C 74% 2.3 mph NW3.7 kmh NW 3.5 mph5.6 kmh 29.82 in1009.8 mb - 0.00 in0.0 mm 0.00 in0.0 mm
10:10 PM 56.3°F13.5°C 48.1°F8.9°C 74% 1.2 mph WSW1.9 kmh WSW 2.3 mph3.7 kmh 29.83 in1010.2 mb - 0.00 in0.0 mm 0.00 in0.0 mm
10:15 PM 56.3°F13.5°C 48.1°F8.9°C 74% Calm Calm 1.2 mph1.9 kmh 29.83 in1010.2 mb - 0.00 in0.0 mm 0.00 in0.0 mm
10:20 PM 56.3°F13.5°C 48.1°F8.9°C 74% Calm Calm 1.2 mph1.9 kmh 29.83 in1010.2 mb - 0.00 in0.0 mm 0.00 in0.0 mm
10:25 PM 56.2°F13.4°C 48.4°F9.1°C 75% 1.2 mph WSW1.9 kmh WSW 2.3 mph3.7 kmh 29.83 in1010.2 mb - 0.00 in0.0 mm 0.00 in0.0 mm
10:30 PM 56.0°F13.3°C 48.2°F9.0°C 75% 1.2 mph WSW1.9 kmh WSW 2.3 mph3.7 kmh 29.83 in1010.2 mb - 0.00 in0.0 mm 0.00 in0.0 mm
10:35 PM 55.9°F13.3°C 48.1°F8.9°C 75% 1.2 mph WSW1.9 kmh WSW 2.3 mph3.7 kmh 29.83 in1010.2 mb - 0.00 in0.0 mm 0.00 in0.0 mm
10:40 PM 55.8°F13.2°C 48.0°F8.9°C 75% Calm Calm -- 29.83 in1010.2 mb - 0.00 in0.0 mm 0.00 in0.0 mm
10:45 PM 55.6°F13.1°C 48.2°F9.0°C 76% 2.3 mph SW3.7 kmh SW 3.5 mph5.6 kmh 29.83 in1010.2 mb - 0.00 in0.0 mm 0.00 in0.0 mm
10:50 PM 55.4°F13.0°C 48.0°F8.9°C 76% Calm Calm 2.3 mph3.7 kmh 29.83 in1010.2 mb - 0.00 in0.0 mm 0.00 in0.0 mm
10:55 PM 55.1°F12.8°C 48.0°F8.9°C 77% 2.3 mph SW3.7 kmh SW 2.3 mph3.7 kmh 29.83 in1010.2 mb - 0.00 in0.0 mm 0.00 in0.0 mm
11:00 PM 55.0°F12.8°C 47.9°F8.8°C 77% 1.2 mph SW1.9 kmh SW 1.2 mph1.9 kmh 29.83 in1010.2 mb - 0.00 in0.0 mm 0.00 in0.0 mm
11:05 PM 54.9°F12.7°C 48.1°F8.9°C 78% Calm Calm 1.2 mph1.9 kmh 29.83 in1010.2 mb - 0.00 in0.0 mm 0.00 in0.0 mm
11:10 PM 54.8°F12.7°C 48.0°F8.9°C 78% 1.2 mph SW1.9 kmh SW 2.3 mph3.7 kmh 29.84 in1010.5 mb - 0.00 in0.0 mm 0.00 in0.0 mm
11:15 PM 54.7°F12.6°C 48.0°F8.9°C 78% 1.2 mph SW1.9 kmh SW 2.3 mph3.7 kmh 29.83 in1010.2 mb - 0.00 in0.0 mm 0.00 in0.0 mm
11:20 PM 54.6°F12.6°C 47.9°F8.8°C 78% 1.2 mph SW1.9 kmh SW 3.5 mph5.6 kmh 29.83 in1010.2 mb - 0.00 in0.0 mm 0.00 in0.0 mm
11:25 PM 54.4°F12.4°C 48.0°F8.9°C 79% 1.2 mph SW1.9 kmh SW 1.2 mph1.9 kmh 29.84 in1010.5 mb - 0.00 in0.0 mm 0.00 in0.0 mm
11:30 PM 54.3°F12.4°C 47.9°F8.8°C 79% Calm Calm 1.2 mph1.9 kmh 29.84 in1010.5 mb - 0.00 in0.0 mm 0.00 in0.0 mm
11:35 PM 54.2°F12.3°C 47.8°F8.8°C 79% Calm Calm 1.2 mph1.9 kmh 29.84 in1010.5 mb - 0.00 in0.0 mm 0.00 in0.0 mm
11:40 PM 54.1°F12.3°C 47.7°F8.7°C 79% Calm Calm 1.2 mph1.9 kmh 29.84 in1010.5 mb - 0.00 in0.0 mm 0.00 in0.0 mm
11:45 PM 54.0°F12.2°C 47.6°F8.7°C 79% 1.2 mph SW1.9 kmh SW 2.3 mph3.7 kmh 29.84 in1010.5 mb - 0.00 in0.0 mm 0.00 in0.0 mm
11:50 PM 53.8°F12.1°C 47.4°F8.6°C 79% 2.3 mph SW3.7 kmh SW 3.5 mph5.6 kmh 29.84 in1010.5 mb - 0.00 in0.0 mm 0.00 in0.0 mm
11:55 PM 53.6°F12.0°C 47.6°F8.7°C 80% 2.3 mph SW3.7 kmh SW 3.5 mph5.6 kmh 29.84 in1010.5 mb - 0.00 in0.0 mm 0.00 in0.0 mm